sensor_id;sensor_type;location;lat;lon;timestamp;P1;durP1;ratioP1;P2;durP2;ratioP2
79249;SDS011;68679;51.030;7.584;2023-07-31T00:01:41;9.60;;;2.80;;
79249;SDS011;68679;51.030;7.584;2023-07-31T00:04:06;5.77;;;2.47;;
79249;SDS011;68679;51.030;7.584;2023-07-31T00:06:31;9.57;;;2.97;;
79249;SDS011;68679;51.030;7.584;2023-07-31T00:08:56;6.53;;;3.00;;
79249;SDS011;68679;51.030;7.584;2023-07-31T00:11:22;7.37;;;2.73;;
79249;SDS011;68679;51.030;7.584;2023-07-31T00:13:47;7.33;;;2.60;;
79249;SDS011;68679;51.030;7.584;2023-07-31T00:16:12;7.40;;;2.80;;
79249;SDS011;68679;51.030;7.584;2023-07-31T00:18:37;7.00;;;2.77;;
79249;SDS011;68679;51.030;7.584;2023-07-31T00:21:03;10.43;;;3.17;;
79249;SDS011;68679;51.030;7.584;2023-07-31T00:23:28;8.13;;;2.77;;
79249;SDS011;68679;51.030;7.584;2023-07-31T00:25:53;6.80;;;2.97;;
79249;SDS011;68679;51.030;7.584;2023-07-31T00:28:19;9.27;;;3.03;;
79249;SDS011;68679;51.030;7.584;2023-07-31T00:30:44;8.33;;;2.97;;
79249;SDS011;68679;51.030;7.584;2023-07-31T00:33:09;7.00;;;2.70;;
79249;SDS011;68679;51.030;7.584;2023-07-31T00:35:34;5.77;;;2.37;;
79249;SDS011;68679;51.030;7.584;2023-07-31T00:38:00;7.27;;;2.40;;
79249;SDS011;68679;51.030;7.584;2023-07-31T00:40:25;7.57;;;2.80;;
79249;SDS011;68679;51.030;7.584;2023-07-31T00:42:50;6.60;;;2.53;;
79249;SDS011;68679;51.030;7.584;2023-07-31T00:45:15;9.10;;;2.77;;
79249;SDS011;68679;51.030;7.584;2023-07-31T00:47:41;9.07;;;3.10;;
79249;SDS011;68679;51.030;7.584;2023-07-31T00:50:06;8.70;;;2.67;;
79249;SDS011;68679;51.030;7.584;2023-07-31T00:52:32;8.50;;;2.90;;
79249;SDS011;68679;51.030;7.584;2023-07-31T00:54:57;11.23;;;3.57;;
79249;SDS011;68679;51.030;7.584;2023-07-31T00:57:23;5.88;;;3.00;;
79249;SDS011;68679;51.030;7.584;2023-07-31T00:59:48;8.48;;;2.63;;
79249;SDS011;68679;51.030;7.584;2023-07-31T01:02:14;6.43;;;3.20;;
79249;SDS011;68679;51.030;7.584;2023-07-31T01:04:39;8.38;;;3.15;;
79249;SDS011;68679;51.030;7.584;2023-07-31T01:07:09;7.55;;;3.00;;
79249;SDS011;68679;51.030;7.584;2023-07-31T01:09:47;9.20;;;3.45;;
79249;SDS011;68679;51.030;7.584;2023-07-31T01:12:23;10.25;;;2.72;;
79249;SDS011;68679;51.030;7.584;2023-07-31T01:15:05;8.45;;;2.75;;
79249;SDS011;68679;51.030;7.584;2023-07-31T01:17:31;7.82;;;3.15;;
79249;SDS011;68679;51.030;7.584;2023-07-31T01:19:59;10.18;;;3.40;;
79249;SDS011;68679;51.030;7.584;2023-07-31T01:22:51;8.80;;;3.13;;
79249;SDS011;68679;51.030;7.584;2023-07-31T01:27:59;6.10;;;2.95;;
79249;SDS011;68679;51.030;7.584;2023-07-31T01:30:28;7.60;;;2.58;;
79249;SDS011;68679;51.030;7.584;2023-07-31T01:33:01;8.35;;;2.97;;
79249;SDS011;68679;51.030;7.584;2023-07-31T01:35:32;7.38;;;2.90;;
79249;SDS011;68679;51.030;7.584;2023-07-31T01:37:58;12.65;;;2.70;;
79249;SDS011;68679;51.030;7.584;2023-07-31T01:40:24;10.30;;;2.55;;
79249;SDS011;68679;51.030;7.584;2023-07-31T01:42:49;9.07;;;3.00;;
79249;SDS011;68679;51.030;7.584;2023-07-31T01:45:14;15.77;;;2.90;;
79249;SDS011;68679;51.030;7.584;2023-07-31T01:47:40;8.45;;;2.55;;
79249;SDS011;68679;51.030;7.584;2023-07-31T01:50:05;7.57;;;2.93;;
79249;SDS011;68679;51.030;7.584;2023-07-31T01:52:31;11.43;;;2.95;;
79249;SDS011;68679;51.030;7.584;2023-07-31T01:54:56;5.60;;;2.23;;
79249;SDS011;68679;51.030;7.584;2023-07-31T01:57:21;6.10;;;2.50;;
79249;SDS011;68679;51.030;7.584;2023-07-31T01:59:46;5.50;;;2.33;;
79249;SDS011;68679;51.030;7.584;2023-07-31T02:02:12;9.77;;;2.80;;
79249;SDS011;68679;51.030;7.584;2023-07-31T02:04:38;6.78;;;2.15;;
79249;SDS011;68679;51.030;7.584;2023-07-31T02:07:04;6.18;;;2.58;;
79249;SDS011;68679;51.030;7.584;2023-07-31T02:09:30;10.38;;;2.90;;
79249;SDS011;68679;51.030;7.584;2023-07-31T02:11:55;6.30;;;2.40;;
79249;SDS011;68679;51.030;7.584;2023-07-31T02:14:20;6.73;;;2.27;;
79249;SDS011;68679;51.030;7.584;2023-07-31T02:16:45;7.33;;;2.60;;
79249;SDS011;68679;51.030;7.584;2023-07-31T02:19:11;7.33;;;2.17;;
79249;SDS011;68679;51.030;7.584;2023-07-31T02:21:36;7.73;;;2.90;;
79249;SDS011;68679;51.030;7.584;2023-07-31T02:24:01;8.13;;;2.80;;
79249;SDS011;68679;51.030;7.584;2023-07-31T02:26:27;8.93;;;2.73;;
79249;SDS011;68679;51.030;7.584;2023-07-31T02:28:52;6.47;;;2.57;;
79249;SDS011;68679;51.030;7.584;2023-07-31T02:31:17;6.57;;;2.43;;
79249;SDS011;68679;51.030;7.584;2023-07-31T02:33:42;8.50;;;2.80;;
79249;SDS011;68679;51.030;7.584;2023-07-31T02:36:08;8.77;;;2.30;;
79249;SDS011;68679;51.030;7.584;2023-07-31T02:38:33;12.43;;;3.07;;
79249;SDS011;68679;51.030;7.584;2023-07-31T02:40:58;6.57;;;2.47;;
79249;SDS011;68679;51.030;7.584;2023-07-31T02:43:24;7.50;;;3.03;;
79249;SDS011;68679;51.030;7.584;2023-07-31T02:45:52;8.20;;;3.20;;
79249;SDS011;68679;51.030;7.584;2023-07-31T02:48:18;7.80;;;3.35;;
79249;SDS011;68679;51.030;7.584;2023-07-31T02:50:44;10.73;;;3.83;;
79249;SDS011;68679;51.030;7.584;2023-07-31T02:53:10;5.15;;;2.35;;
79249;SDS011;68679;51.030;7.584;2023-07-31T02:55:35;7.23;;;2.63;;
79249;SDS011;68679;51.030;7.584;2023-07-31T02:58:01;7.43;;;2.70;;
79249;SDS011;68679;51.030;7.584;2023-07-31T03:00:26;7.90;;;2.80;;
79249;SDS011;68679;51.030;7.584;2023-07-31T03:02:51;7.65;;;2.70;;
79249;SDS011;68679;51.030;7.584;2023-07-31T03:05:16;6.00;;;2.60;;
79249;SDS011;68679;51.030;7.584;2023-07-31T03:07:42;6.03;;;2.20;;
79249;SDS011;68679;51.030;7.584;2023-07-31T03:10:07;7.03;;;2.73;;
79249;SDS011;68679;51.030;7.584;2023-07-31T03:12:33;6.30;;;2.60;;
79249;SDS011;68679;51.030;7.584;2023-07-31T03:14:58;6.93;;;2.67;;
79249;SDS011;68679;51.030;7.584;2023-07-31T03:17:23;10.97;;;2.87;;
79249;SDS011;68679;51.030;7.584;2023-07-31T03:19:48;11.13;;;3.30;;
79249;SDS011;68679;51.030;7.584;2023-07-31T03:22:14;8.53;;;2.47;;
79249;SDS011;68679;51.030;7.584;2023-07-31T03:24:39;10.17;;;3.07;;
79249;SDS011;68679;51.030;7.584;2023-07-31T03:27:04;7.33;;;2.80;;
79249;SDS011;68679;51.030;7.584;2023-07-31T03:29:30;6.60;;;2.60;;
79249;SDS011;68679;51.030;7.584;2023-07-31T03:31:55;7.50;;;3.07;;
79249;SDS011;68679;51.030;7.584;2023-07-31T03:34:21;7.43;;;2.33;;
79249;SDS011;68679;51.030;7.584;2023-07-31T03:36:46;6.27;;;2.37;;
79249;SDS011;68679;51.030;7.584;2023-07-31T03:39:11;5.93;;;2.37;;
79249;SDS011;68679;51.030;7.584;2023-07-31T03:41:36;7.50;;;2.70;;
79249;SDS011;68679;51.030;7.584;2023-07-31T03:44:02;8.03;;;2.63;;
79249;SDS011;68679;51.030;7.584;2023-07-31T03:46:27;8.93;;;2.55;;
79249;SDS011;68679;51.030;7.584;2023-07-31T03:48:52;5.70;;;2.75;;
79249;SDS011;68679;51.030;7.584;2023-07-31T03:51:18;7.53;;;2.60;;
79249;SDS011;68679;51.030;7.584;2023-07-31T03:53:43;7.23;;;2.90;;
79249;SDS011;68679;51.030;7.584;2023-07-31T03:56:09;12.18;;;3.08;;
79249;SDS011;68679;51.030;7.584;2023-07-31T03:58:34;11.27;;;3.53;;
79249;SDS011;68679;51.030;7.584;2023-07-31T04:01:00;6.80;;;2.90;;
79249;SDS011;68679;51.030;7.584;2023-07-31T04:03:26;8.50;;;3.08;;
79249;SDS011;68679;51.030;7.584;2023-07-31T04:05:53;7.95;;;2.92;;
79249;SDS011;68679;51.030;7.584;2023-07-31T04:08:19;5.85;;;2.55;;
79249;SDS011;68679;51.030;7.584;2023-07-31T04:10:44;7.13;;;2.90;;
79249;SDS011;68679;51.030;7.584;2023-07-31T04:13:09;7.70;;;2.70;;
79249;SDS011;68679;51.030;7.584;2023-07-31T04:15:35;8.20;;;2.77;;
79249;SDS011;68679;51.030;7.584;2023-07-31T04:18:00;7.93;;;2.90;;
79249;SDS011;68679;51.030;7.584;2023-07-31T04:20:25;10.00;;;2.53;;
79249;SDS011;68679;51.030;7.584;2023-07-31T04:22:50;5.07;;;2.40;;
79249;SDS011;68679;51.030;7.584;2023-07-31T04:25:16;9.40;;;2.83;;
79249;SDS011;68679;51.030;7.584;2023-07-31T04:27:41;10.37;;;3.10;;
79249;SDS011;68679;51.030;7.584;2023-07-31T04:30:06;6.97;;;2.60;;
79249;SDS011;68679;51.030;7.584;2023-07-31T04:32:32;7.18;;;2.78;;
79249;SDS011;68679;51.030;7.584;2023-07-31T04:34:57;6.87;;;2.60;;
79249;SDS011;68679;51.030;7.584;2023-07-31T04:37:22;7.77;;;2.97;;
79249;SDS011;68679;51.030;7.584;2023-07-31T04:39:48;8.83;;;3.20;;
79249;SDS011;68679;51.030;7.584;2023-07-31T04:42:13;7.17;;;2.80;;
79249;SDS011;68679;51.030;7.584;2023-07-31T04:44:38;8.97;;;3.00;;
79249;SDS011;68679;51.030;7.584;2023-07-31T04:47:04;10.68;;;3.17;;
79249;SDS011;68679;51.030;7.584;2023-07-31T04:49:29;9.50;;;3.70;;
79249;SDS011;68679;51.030;7.584;2023-07-31T04:51:54;5.97;;;2.80;;
79249;SDS011;68679;51.030;7.584;2023-07-31T04:54:20;9.63;;;3.47;;
79249;SDS011;68679;51.030;7.584;2023-07-31T04:56:45;6.80;;;2.50;;
79249;SDS011;68679;51.030;7.584;2023-07-31T04:59:10;7.15;;;3.47;;
79249;SDS011;68679;51.030;7.584;2023-07-31T05:01:35;8.80;;;3.17;;
79249;SDS011;68679;51.030;7.584;2023-07-31T05:04:01;8.43;;;3.20;;
79249;SDS011;68679;51.030;7.584;2023-07-31T05:06:26;8.43;;;3.33;;
79249;SDS011;68679;51.030;7.584;2023-07-31T05:08:51;9.90;;;3.43;;
79249;SDS011;68679;51.030;7.584;2023-07-31T05:11:17;7.23;;;3.33;;
79249;SDS011;68679;51.030;7.584;2023-07-31T05:13:42;6.90;;;3.63;;
79249;SDS011;68679;51.030;7.584;2023-07-31T05:16:07;11.30;;;4.33;;
79249;SDS011;68679;51.030;7.584;2023-07-31T05:18:32;7.97;;;3.50;;
79249;SDS011;68679;51.030;7.584;2023-07-31T05:20:58;8.47;;;3.37;;
79249;SDS011;68679;51.030;7.584;2023-07-31T05:23:23;8.30;;;3.70;;
79249;SDS011;68679;51.030;7.584;2023-07-31T05:25:48;10.13;;;3.37;;
79249;SDS011;68679;51.030;7.584;2023-07-31T05:28:14;12.43;;;4.13;;
79249;SDS011;68679;51.030;7.584;2023-07-31T05:30:39;9.67;;;4.00;;
79249;SDS011;68679;51.030;7.584;2023-07-31T05:33:04;8.73;;;3.53;;
79249;SDS011;68679;51.030;7.584;2023-07-31T05:35:29;11.07;;;3.67;;
79249;SDS011;68679;51.030;7.584;2023-07-31T05:37:55;6.33;;;2.97;;
79249;SDS011;68679;51.030;7.584;2023-07-31T05:40:20;6.63;;;3.10;;
79249;SDS011;68679;51.030;7.584;2023-07-31T05:42:45;9.43;;;3.80;;
79249;SDS011;68679;51.030;7.584;2023-07-31T05:45:11;11.37;;;3.60;;
79249;SDS011;68679;51.030;7.584;2023-07-31T05:47:36;8.03;;;3.57;;
79249;SDS011;68679;51.030;7.584;2023-07-31T05:50:01;8.93;;;3.03;;
79249;SDS011;68679;51.030;7.584;2023-07-31T05:52:27;6.90;;;3.17;;
79249;SDS011;68679;51.030;7.584;2023-07-31T05:54:54;6.50;;;3.40;;
79249;SDS011;68679;51.030;7.584;2023-07-31T05:57:19;11.98;;;3.88;;
79249;SDS011;68679;51.030;7.584;2023-07-31T05:59:45;8.68;;;3.17;;
79249;SDS011;68679;51.030;7.584;2023-07-31T06:02:10;7.82;;;2.90;;
79249;SDS011;68679;51.030;7.584;2023-07-31T06:04:36;13.33;;;4.77;;
79249;SDS011;68679;51.030;7.584;2023-07-31T06:07:01;10.67;;;3.90;;
79249;SDS011;68679;51.030;7.584;2023-07-31T06:09:26;9.35;;;4.65;;
79249;SDS011;68679;51.030;7.584;2023-07-31T06:11:52;10.00;;;3.37;;
79249;SDS011;68679;51.030;7.584;2023-07-31T06:14:17;7.65;;;3.40;;
79249;SDS011;68679;51.030;7.584;2023-07-31T06:16:43;6.67;;;3.07;;
79249;SDS011;68679;51.030;7.584;2023-07-31T06:19:09;9.70;;;3.58;;
79249;SDS011;68679;51.030;7.584;2023-07-31T06:21:34;7.45;;;3.40;;
79249;SDS011;68679;51.030;7.584;2023-07-31T06:24:02;8.48;;;3.40;;
79249;SDS011;68679;51.030;7.584;2023-07-31T06:26:28;7.30;;;3.60;;
79249;SDS011;68679;51.030;7.584;2023-07-31T06:28:53;7.10;;;3.77;;
79249;SDS011;68679;51.030;7.584;2023-07-31T06:31:18;12.00;;;4.03;;
79249;SDS011;68679;51.030;7.584;2023-07-31T06:33:47;9.93;;;3.50;;
79249;SDS011;68679;51.030;7.584;2023-07-31T06:36:13;7.47;;;3.35;;
79249;SDS011;68679;51.030;7.584;2023-07-31T06:38:38;9.30;;;3.17;;
79249;SDS011;68679;51.030;7.584;2023-07-31T06:41:03;11.07;;;3.73;;
79249;SDS011;68679;51.030;7.584;2023-07-31T06:43:29;8.35;;;3.20;;
79249;SDS011;68679;51.030;7.584;2023-07-31T06:45:54;9.10;;;3.07;;
79249;SDS011;68679;51.030;7.584;2023-07-31T06:48:19;9.63;;;3.63;;
79249;SDS011;68679;51.030;7.584;2023-07-31T06:50:45;6.27;;;2.80;;
79249;SDS011;68679;51.030;7.584;2023-07-31T06:53:10;9.05;;;3.10;;
79249;SDS011;68679;51.030;7.584;2023-07-31T06:55:35;8.83;;;3.43;;
79249;SDS011;68679;51.030;7.584;2023-07-31T06:58:01;7.00;;;3.10;;
79249;SDS011;68679;51.030;7.584;2023-07-31T07:00:26;11.50;;;3.43;;
79249;SDS011;68679;51.030;7.584;2023-07-31T07:02:52;6.32;;;2.90;;
79249;SDS011;68679;51.030;7.584;2023-07-31T07:05:17;11.60;;;3.50;;
79249;SDS011;68679;51.030;7.584;2023-07-31T07:07:43;5.72;;;2.70;;
79249;SDS011;68679;51.030;7.584;2023-07-31T07:10:08;7.05;;;3.10;;
79249;SDS011;68679;51.030;7.584;2023-07-31T07:12:34;7.55;;;3.00;;
79249;SDS011;68679;51.030;7.584;2023-07-31T07:15:00;8.55;;;3.15;;
79249;SDS011;68679;51.030;7.584;2023-07-31T07:17:27;6.50;;;3.13;;
79249;SDS011;68679;51.030;7.584;2023-07-31T07:22:21;6.47;;;2.93;;
79249;SDS011;68679;51.030;7.584;2023-07-31T07:24:46;5.63;;;2.70;;
79249;SDS011;68679;51.030;7.584;2023-07-31T07:27:11;7.70;;;2.97;;
79249;SDS011;68679;51.030;7.584;2023-07-31T07:29:37;8.00;;;2.73;;
79249;SDS011;68679;51.030;7.584;2023-07-31T07:32:03;7.88;;;3.42;;
79249;SDS011;68679;51.030;7.584;2023-07-31T07:34:29;7.40;;;2.67;;
79249;SDS011;68679;51.030;7.584;2023-07-31T07:36:54;8.80;;;3.30;;
79249;SDS011;68679;51.030;7.584;2023-07-31T07:39:20;6.85;;;3.10;;
79249;SDS011;68679;51.030;7.584;2023-07-31T07:41:46;9.60;;;3.60;;
79249;SDS011;68679;51.030;7.584;2023-07-31T07:44:11;7.68;;;3.17;;
79249;SDS011;68679;51.030;7.584;2023-07-31T07:46:38;9.48;;;3.50;;
79249;SDS011;68679;51.030;7.584;2023-07-31T07:49:03;7.68;;;2.90;;
79249;SDS011;68679;51.030;7.584;2023-07-31T07:51:28;8.20;;;3.37;;
79249;SDS011;68679;51.030;7.584;2023-07-31T07:53:55;8.10;;;3.50;;
79249;SDS011;68679;51.030;7.584;2023-07-31T07:56:21;10.15;;;3.30;;
79249;SDS011;68679;51.030;7.584;2023-07-31T07:58:48;7.22;;;3.35;;
79249;SDS011;68679;51.030;7.584;2023-07-31T08:01:14;7.55;;;3.22;;
79249;SDS011;68679;51.030;7.584;2023-07-31T08:03:39;6.07;;;3.30;;
79249;SDS011;68679;51.030;7.584;2023-07-31T08:06:04;7.20;;;3.23;;
79249;SDS011;68679;51.030;7.584;2023-07-31T08:08:30;8.40;;;2.90;;
79249;SDS011;68679;51.030;7.584;2023-07-31T08:10:55;9.03;;;3.57;;
79249;SDS011;68679;51.030;7.584;2023-07-31T08:13:20;9.32;;;3.20;;
79249;SDS011;68679;51.030;7.584;2023-07-31T08:15:46;7.60;;;3.13;;
79249;SDS011;68679;51.030;7.584;2023-07-31T08:18:11;8.82;;;3.05;;
79249;SDS011;68679;51.030;7.584;2023-07-31T08:20:37;10.85;;;3.65;;
79249;SDS011;68679;51.030;7.584;2023-07-31T08:23:03;6.38;;;3.17;;
79249;SDS011;68679;51.030;7.584;2023-07-31T08:25:28;9.85;;;3.42;;
79249;SDS011;68679;51.030;7.584;2023-07-31T08:27:54;8.10;;;3.05;;
79249;SDS011;68679;51.030;7.584;2023-07-31T08:30:19;6.45;;;2.80;;
79249;SDS011;68679;51.030;7.584;2023-07-31T08:32:44;7.25;;;3.63;;
79249;SDS011;68679;51.030;7.584;2023-07-31T08:35:10;7.97;;;3.53;;
79249;SDS011;68679;51.030;7.584;2023-07-31T08:37:35;7.28;;;3.17;;
79249;SDS011;68679;51.030;7.584;2023-07-31T08:40:03;10.85;;;4.30;;
79249;SDS011;68679;51.030;7.584;2023-07-31T08:42:29;8.18;;;3.38;;
79249;SDS011;68679;51.030;7.584;2023-07-31T08:44:54;8.50;;;3.25;;
79249;SDS011;68679;51.030;7.584;2023-07-31T08:47:21;11.80;;;3.40;;
79249;SDS011;68679;51.030;7.584;2023-07-31T08:49:46;8.32;;;3.70;;
79249;SDS011;68679;51.030;7.584;2023-07-31T08:52:13;7.95;;;3.75;;
79249;SDS011;68679;51.030;7.584;2023-07-31T08:54:38;9.37;;;3.50;;
79249;SDS011;68679;51.030;7.584;2023-07-31T08:57:04;9.15;;;3.65;;
79249;SDS011;68679;51.030;7.584;2023-07-31T08:59:30;8.43;;;3.55;;
79249;SDS011;68679;51.030;7.584;2023-07-31T09:02:00;7.32;;;3.53;;
79249;SDS011;68679;51.030;7.584;2023-07-31T09:04:31;7.20;;;3.17;;
79249;SDS011;68679;51.030;7.584;2023-07-31T09:06:59;6.88;;;2.80;;
79249;SDS011;68679;51.030;7.584;2023-07-31T09:09:28;6.43;;;2.80;;
79249;SDS011;68679;51.030;7.584;2023-07-31T09:11:53;6.95;;;3.25;;
79249;SDS011;68679;51.030;7.584;2023-07-31T09:14:20;10.38;;;3.17;;
79249;SDS011;68679;51.030;7.584;2023-07-31T09:16:55;7.93;;;2.88;;
79249;SDS011;68679;51.030;7.584;2023-07-31T09:19:27;5.95;;;2.78;;
79249;SDS011;68679;51.030;7.584;2023-07-31T09:21:59;7.85;;;2.60;;
79249;SDS011;68679;51.030;7.584;2023-07-31T09:24:28;6.47;;;3.13;;
79249;SDS011;68679;51.030;7.584;2023-07-31T09:26:55;6.82;;;2.75;;
79249;SDS011;68679;51.030;7.584;2023-07-31T09:29:22;9.70;;;3.80;;
79249;SDS011;68679;51.030;7.584;2023-07-31T09:31:48;7.80;;;2.92;;
79249;SDS011;68679;51.030;7.584;2023-07-31T09:34:13;7.70;;;3.45;;
79249;SDS011;68679;51.030;7.584;2023-07-31T09:36:40;6.60;;;2.85;;
79249;SDS011;68679;51.030;7.584;2023-07-31T09:39:08;7.88;;;3.10;;
79249;SDS011;68679;51.030;7.584;2023-07-31T09:41:38;7.95;;;2.95;;
79249;SDS011;68679;51.030;7.584;2023-07-31T09:44:04;8.40;;;2.90;;
79249;SDS011;68679;51.030;7.584;2023-07-31T09:46:29;9.68;;;3.90;;
79249;SDS011;68679;51.030;7.584;2023-07-31T09:49:03;7.53;;;2.80;;
79249;SDS011;68679;51.030;7.584;2023-07-31T09:51:30;7.85;;;3.72;;
79249;SDS011;68679;51.030;7.584;2023-07-31T09:53:56;9.40;;;3.20;;
79249;SDS011;68679;51.030;7.584;2023-07-31T09:56:21;7.45;;;3.28;;
79249;SDS011;68679;51.030;7.584;2023-07-31T09:58:48;8.52;;;5.10;;
79249;SDS011;68679;51.030;7.584;2023-07-31T10:01:14;7.30;;;2.80;;
79249;SDS011;68679;51.030;7.584;2023-07-31T10:03:39;7.55;;;3.42;;
79249;SDS011;68679;51.030;7.584;2023-07-31T10:06:05;5.45;;;3.20;;
79249;SDS011;68679;51.030;7.584;2023-07-31T10:08:34;6.22;;;2.78;;
79249;SDS011;68679;51.030;7.584;2023-07-31T10:11:01;5.40;;;3.03;;
79249;SDS011;68679;51.030;7.584;2023-07-31T10:13:27;6.25;;;2.90;;
79249;SDS011;68679;51.030;7.584;2023-07-31T10:15:54;6.55;;;2.88;;
79249;SDS011;68679;51.030;7.584;2023-07-31T10:18:23;7.03;;;2.65;;
79249;SDS011;68679;51.030;7.584;2023-07-31T10:20:49;7.25;;;3.63;;
79249;SDS011;68679;51.030;7.584;2023-07-31T10:23:14;6.80;;;2.60;;
79249;SDS011;68679;51.030;7.584;2023-07-31T10:25:40;7.13;;;3.10;;
79249;SDS011;68679;51.030;7.584;2023-07-31T10:28:07;6.50;;;2.95;;
79249;SDS011;68679;51.030;7.584;2023-07-31T10:30:35;7.80;;;2.58;;
79249;SDS011;68679;51.030;7.584;2023-07-31T10:33:03;8.25;;;3.30;;
79249;SDS011;68679;51.030;7.584;2023-07-31T10:35:29;5.88;;;3.25;;
79249;SDS011;68679;51.030;7.584;2023-07-31T10:37:55;6.27;;;2.70;;
79249;SDS011;68679;51.030;7.584;2023-07-31T10:40:24;6.23;;;2.57;;
79249;SDS011;68679;51.030;7.584;2023-07-31T10:42:52;7.05;;;2.95;;
79249;SDS011;68679;51.030;7.584;2023-07-31T10:45:34;5.75;;;3.08;;
79249;SDS011;68679;51.030;7.584;2023-07-31T10:48:17;5.75;;;2.80;;
79249;SDS011;68679;51.030;7.584;2023-07-31T10:50:47;8.45;;;3.50;;
79249;SDS011;68679;51.030;7.584;2023-07-31T10:53:28;11.48;;;3.47;;
79249;SDS011;68679;51.030;7.584;2023-07-31T10:56:04;10.18;;;3.72;;
79249;SDS011;68679;51.030;7.584;2023-07-31T10:58:31;7.43;;;3.28;;
79249;SDS011;68679;51.030;7.584;2023-07-31T11:01:06;5.07;;;2.67;;
79249;SDS011;68679;51.030;7.584;2023-07-31T11:03:47;8.25;;;3.20;;
79249;SDS011;68679;51.030;7.584;2023-07-31T11:06:14;7.13;;;3.15;;
79249;SDS011;68679;51.030;7.584;2023-07-31T11:08:41;5.78;;;3.40;;
79249;SDS011;68679;51.030;7.584;2023-07-31T11:11:09;5.28;;;2.67;;
79249;SDS011;68679;51.030;7.584;2023-07-31T11:13:51;7.43;;;3.08;;
79249;SDS011;68679;51.030;7.584;2023-07-31T11:16:18;7.47;;;3.17;;
79249;SDS011;68679;51.030;7.584;2023-07-31T11:18:46;7.75;;;3.35;;
79249;SDS011;68679;51.030;7.584;2023-07-31T11:21:21;9.00;;;3.42;;
79249;SDS011;68679;51.030;7.584;2023-07-31T11:23:52;11.07;;;4.85;;
79249;SDS011;68679;51.030;7.584;2023-07-31T11:26:19;8.15;;;3.10;;
79249;SDS011;68679;51.030;7.584;2023-07-31T11:28:47;8.93;;;3.63;;
79249;SDS011;68679;51.030;7.584;2023-07-31T11:31:13;7.75;;;3.95;;
79249;SDS011;68679;51.030;7.584;2023-07-31T11:33:38;10.67;;;4.10;;
79249;SDS011;68679;51.030;7.584;2023-07-31T11:36:04;8.73;;;3.67;;
79249;SDS011;68679;51.030;7.584;2023-07-31T11:38:30;8.80;;;3.75;;
79249;SDS011;68679;51.030;7.584;2023-07-31T11:40:58;7.53;;;3.35;;
79249;SDS011;68679;51.030;7.584;2023-07-31T11:43:25;6.55;;;3.63;;
79249;SDS011;68679;51.030;7.584;2023-07-31T11:45:52;9.13;;;3.22;;
79249;SDS011;68679;51.030;7.584;2023-07-31T11:48:42;7.30;;;3.47;;
79249;SDS011;68679;51.030;7.584;2023-07-31T11:51:10;9.40;;;3.90;;
79249;SDS011;68679;51.030;7.584;2023-07-31T11:56:09;5.43;;;2.67;;
79249;SDS011;68679;51.030;7.584;2023-07-31T11:58:37;7.13;;;3.40;;
79249;SDS011;68679;51.030;7.584;2023-07-31T12:01:04;10.07;;;3.35;;
79249;SDS011;68679;51.030;7.584;2023-07-31T12:03:30;8.18;;;3.05;;
79249;SDS011;68679;51.030;7.584;2023-07-31T12:05:57;6.80;;;2.45;;
79249;SDS011;68679;51.030;7.584;2023-07-31T12:08:24;6.72;;;2.95;;
79249;SDS011;68679;51.030;7.584;2023-07-31T12:10:50;8.43;;;2.70;;
79249;SDS011;68679;51.030;7.584;2023-07-31T12:13:22;8.48;;;3.80;;
79249;SDS011;68679;51.030;7.584;2023-07-31T12:15:58;4.60;;;2.50;;
79249;SDS011;68679;51.030;7.584;2023-07-31T12:18:26;5.53;;;2.92;;
79249;SDS011;68679;51.030;7.584;2023-07-31T12:21:02;7.28;;;2.55;;
79249;SDS011;68679;51.030;7.584;2023-07-31T12:23:30;5.05;;;2.90;;
79249;SDS011;68679;51.030;7.584;2023-07-31T12:26:06;6.68;;;2.75;;
79249;SDS011;68679;51.030;7.584;2023-07-31T12:31:15;6.13;;;2.17;;
79249;SDS011;68679;51.030;7.584;2023-07-31T12:33:45;5.65;;;2.30;;
79249;SDS011;68679;51.030;7.584;2023-07-31T12:36:12;5.25;;;1.80;;
79249;SDS011;68679;51.030;7.584;2023-07-31T12:38:41;5.25;;;2.28;;
79249;SDS011;68679;51.030;7.584;2023-07-31T12:41:08;5.95;;;2.03;;
79249;SDS011;68679;51.030;7.584;2023-07-31T12:43:35;4.97;;;2.30;;
79249;SDS011;68679;51.030;7.584;2023-07-31T12:46:01;4.43;;;2.00;;
79249;SDS011;68679;51.030;7.584;2023-07-31T12:48:26;4.57;;;2.00;;
79249;SDS011;68679;51.030;7.584;2023-07-31T12:50:51;4.23;;;2.30;;
79249;SDS011;68679;51.030;7.584;2023-07-31T12:53:17;4.63;;;1.77;;
79249;SDS011;68679;51.030;7.584;2023-07-31T12:55:42;5.67;;;1.93;;
79249;SDS011;68679;51.030;7.584;2023-07-31T12:58:07;2.70;;;1.60;;
79249;SDS011;68679;51.030;7.584;2023-07-31T13:00:33;6.33;;;1.70;;
79249;SDS011;68679;51.030;7.584;2023-07-31T13:02:59;5.17;;;1.90;;
79249;SDS011;68679;51.030;7.584;2023-07-31T13:05:25;3.28;;;1.98;;
79249;SDS011;68679;51.030;7.584;2023-07-31T13:07:50;6.90;;;1.95;;
79249;SDS011;68679;51.030;7.584;2023-07-31T13:10:16;3.33;;;1.60;;
79249;SDS011;68679;51.030;7.584;2023-07-31T13:12:41;3.30;;;1.60;;
79249;SDS011;68679;51.030;7.584;2023-07-31T13:15:06;3.15;;;1.85;;
79249;SDS011;68679;51.030;7.584;2023-07-31T13:17:32;3.40;;;1.70;;
79249;SDS011;68679;51.030;7.584;2023-07-31T13:19:58;4.88;;;1.60;;
79249;SDS011;68679;51.030;7.584;2023-07-31T13:22:24;4.80;;;1.73;;
79249;SDS011;68679;51.030;7.584;2023-07-31T13:24:50;3.40;;;1.70;;
79249;SDS011;68679;51.030;7.584;2023-07-31T13:27:15;4.37;;;1.50;;
79249;SDS011;68679;51.030;7.584;2023-07-31T13:29:45;4.18;;;1.60;;
79249;SDS011;68679;51.030;7.584;2023-07-31T13:32:11;3.85;;;2.03;;
79249;SDS011;68679;51.030;7.584;2023-07-31T13:34:36;3.63;;;1.50;;
79249;SDS011;68679;51.030;7.584;2023-07-31T13:37:01;3.90;;;1.45;;
79249;SDS011;68679;51.030;7.584;2023-07-31T13:39:27;5.78;;;1.60;;
79249;SDS011;68679;51.030;7.584;2023-07-31T13:41:52;4.77;;;2.03;;
79249;SDS011;68679;51.030;7.584;2023-07-31T13:44:18;4.30;;;1.80;;
79249;SDS011;68679;51.030;7.584;2023-07-31T13:46:43;3.17;;;1.87;;
79249;SDS011;68679;51.030;7.584;2023-07-31T13:49:08;4.13;;;1.90;;
79249;SDS011;68679;51.030;7.584;2023-07-31T13:51:33;3.67;;;1.77;;
79249;SDS011;68679;51.030;7.584;2023-07-31T13:53:59;4.60;;;1.70;;
79249;SDS011;68679;51.030;7.584;2023-07-31T13:56:24;3.17;;;1.80;;
79249;SDS011;68679;51.030;7.584;2023-07-31T13:58:49;3.10;;;1.73;;
79249;SDS011;68679;51.030;7.584;2023-07-31T14:01:15;2.97;;;1.58;;
79249;SDS011;68679;51.030;7.584;2023-07-31T14:03:40;3.40;;;1.90;;
79249;SDS011;68679;51.030;7.584;2023-07-31T14:06:05;5.73;;;1.80;;
79249;SDS011;68679;51.030;7.584;2023-07-31T14:08:31;4.53;;;2.20;;
79249;SDS011;68679;51.030;7.584;2023-07-31T14:10:56;3.75;;;1.98;;
79249;SDS011;68679;51.030;7.584;2023-07-31T14:13:21;4.95;;;2.38;;
79249;SDS011;68679;51.030;7.584;2023-07-31T14:15:47;4.25;;;1.95;;
79249;SDS011;68679;51.030;7.584;2023-07-31T14:18:13;5.57;;;2.35;;
79249;SDS011;68679;51.030;7.584;2023-07-31T14:20:38;4.97;;;1.97;;
79249;SDS011;68679;51.030;7.584;2023-07-31T14:23:03;4.80;;;2.30;;
79249;SDS011;68679;51.030;7.584;2023-07-31T14:25:29;6.17;;;2.13;;
79249;SDS011;68679;51.030;7.584;2023-07-31T14:27:54;4.85;;;2.38;;
79249;SDS011;68679;51.030;7.584;2023-07-31T14:30:19;5.83;;;2.50;;
79249;SDS011;68679;51.030;7.584;2023-07-31T14:32:45;3.63;;;1.95;;
79249;SDS011;68679;51.030;7.584;2023-07-31T14:35:11;7.03;;;2.70;;
79249;SDS011;68679;51.030;7.584;2023-07-31T14:37:40;7.37;;;2.60;;
79249;SDS011;68679;51.030;7.584;2023-07-31T14:40:07;4.85;;;2.75;;
79249;SDS011;68679;51.030;7.584;2023-07-31T14:42:34;4.47;;;2.22;;
79249;SDS011;68679;51.030;7.584;2023-07-31T14:44:59;5.63;;;2.85;;
79249;SDS011;68679;51.030;7.584;2023-07-31T14:47:24;4.60;;;2.73;;
79249;SDS011;68679;51.030;7.584;2023-07-31T14:49:50;5.53;;;2.80;;
79249;SDS011;68679;51.030;7.584;2023-07-31T14:52:15;5.80;;;2.73;;